Boeing 747-436 from British Airways at London.
 Regi:G-BNLM  LARGER
 MSN Year:24055 1990
 Date of picture:2008-02-15 13:38
 Discription:Jumbo
 Position:09R
 Flight: DEP MEX BA0243 Mexico City Benito Ju├írez International Airport Mexico
 Logs: G-BNLM (B744 BA) 1439 20080215 BA0243 (EGLL-MEX) [Chelmsford,Essex UK]
MEX Mexico City BA 243 British Airways 12:40 PM 1:05 PM T-4 Landed 32 min 744
 Metar 15/02/2008 13:20 METAR EGLL 151320Z 08012KT 6000 BKN024 07/02 Q1038 NOSIG=
 Hits: 216 ID: 1000

Debriefing: Photographed movements of Airports in NW-Europe.
The images of our site attendant is in authorisation from Queen of Sky.
Copying of images of this site have been prohibited in which manner without the authorisation of the photographer.
In behalf of the crew :"Thank you visiting us" - Contact
Factsheets Boeing, 747-436, British Airways, made by De Plane! © 2006 - 2023 All rights reserved


.